createdAt,value
2019-03-10T00:01:30.803Z,5.50
2019-03-10T00:04:01.275Z,6.63
2019-03-10T00:06:31.995Z,6.13
2019-03-10T00:09:02.423Z,8.47
2019-03-10T00:11:33.223Z,4.23
2019-03-10T00:14:03.661Z,6.67
2019-03-10T00:16:34.494Z,7.00
2019-03-10T00:19:04.917Z,6.10
2019-03-10T00:21:35.429Z,6.47
2019-03-10T00:24:05.828Z,5.53
2019-03-10T00:26:36.249Z,7.47
2019-03-10T00:29:06.718Z,8.60
2019-03-10T00:31:37.151Z,7.33
2019-03-10T00:34:08.324Z,5.37
2019-03-10T00:36:38.819Z,7.97
2019-03-10T00:39:22.282Z,10.03
2019-03-10T00:42:39.996Z,8.77
2019-03-10T00:46:06.700Z,12.57
2019-03-10T00:49:28.036Z,16.77
2019-03-10T00:52:38.127Z,11.83
2019-03-10T00:55:08.563Z,13.43
2019-03-10T00:57:39.399Z,9.80
2019-03-10T01:00:16.541Z,12.47
2019-03-10T01:02:46.990Z,9.80
2019-03-10T01:05:17.999Z,14.63
2019-03-10T01:07:48.589Z,13.17
2019-03-10T01:10:19.027Z,15.10
2019-03-10T01:12:49.822Z,9.43
2019-03-10T01:15:20.260Z,16.60
2019-03-10T01:17:53.422Z,12.93
2019-03-10T01:20:23.991Z,13.57
2019-03-10T01:22:54.426Z,11.37
2019-03-10T01:25:24.868Z,18.63
2019-03-10T01:27:55.809Z,13.40
2019-03-10T01:30:27.706Z,10.27
2019-03-10T01:33:27.136Z,14.37
2019-03-10T01:35:57.580Z,10.70
2019-03-10T01:38:28.447Z,9.13
2019-03-10T01:40:58.951Z,8.93
2019-03-10T01:43:30.298Z,12.57
2019-03-10T01:46:00.736Z,12.00
2019-03-10T01:48:31.584Z,13.47
2019-03-10T01:51:02.012Z,13.03
2019-03-10T01:53:32.813Z,14.23
2019-03-10T01:56:03.394Z,13.13
2019-03-10T01:58:33.860Z,13.90
2019-03-10T02:01:04.341Z,12.33
2019-03-10T02:03:34.783Z,10.97
2019-03-10T02:06:05.221Z,10.27
2019-03-10T02:08:35.688Z,13.17
2019-03-10T02:11:06.229Z,17.93
2019-03-10T02:13:36.704Z,13.00
2019-03-10T02:16:07.544Z,15.73
2019-03-10T02:18:38.021Z,16.43
2019-03-10T02:21:08.808Z,11.53
2019-03-10T02:23:39.316Z,14.17
2019-03-10T02:26:10.729Z,16.97
2019-03-10T02:28:41.156Z,11.90
2019-03-10T02:31:11.591Z,15.07
2019-03-10T02:33:42.049Z,12.17
2019-03-10T02:36:12.514Z,14.03
2019-03-10T02:38:42.994Z,21.07
2019-03-10T02:41:13.425Z,11.80
2019-03-10T02:43:43.856Z,9.10
2019-03-10T02:46:14.318Z,12.30
2019-03-10T02:48:44.743Z,12.17
2019-03-10T02:51:15.605Z,13.07
2019-03-10T02:53:46.038Z,9.10
2019-03-10T02:56:16.507Z,10.87
2019-03-10T02:58:48.224Z,11.47
2019-03-10T03:01:18.701Z,9.40
2019-03-10T03:03:50.123Z,14.33
2019-03-10T03:06:20.620Z,8.47
2019-03-10T03:08:51.045Z,9.23
2019-03-10T03:11:21.806Z,10.50
2019-03-10T03:13:52.646Z,15.33
2019-03-10T03:16:23.088Z,13.93
2019-03-10T03:18:54.561Z,17.77
2019-03-10T03:21:25.229Z,12.80
2019-03-10T03:23:55.993Z,13.73
2019-03-10T03:26:26.463Z,15.10
2019-03-10T03:28:57.839Z,11.00
2019-03-10T03:31:29.081Z,8.10
2019-03-10T03:33:59.503Z,11.23
2019-03-10T03:36:35.827Z,13.53
2019-03-10T03:39:38.833Z,11.93
2019-03-10T03:42:09.568Z,11.90
2019-03-10T03:44:40.000Z,12.37
2019-03-10T03:47:10.451Z,9.87
2019-03-10T03:49:40.889Z,11.43
2019-03-10T03:52:11.341Z,9.43
2019-03-10T03:54:41.770Z,15.47
2019-03-10T03:57:12.252Z,13.30
2019-03-10T03:59:44.327Z,7.80
2019-03-10T04:02:49.047Z,10.50
2019-03-10T04:05:19.469Z,13.60
2019-03-10T04:07:49.907Z,12.17
2019-03-10T04:10:21.326Z,13.67
2019-03-10T04:12:52.131Z,14.73
2019-03-10T04:15:22.965Z,10.53
2019-03-10T04:17:53.388Z,8.40
2019-03-10T04:20:23.908Z,12.23
2019-03-10T04:22:54.384Z,15.63
2019-03-10T04:25:24.823Z,11.37
2019-03-10T04:27:55.287Z,12.93
2019-03-10T04:30:25.732Z,12.67
2019-03-10T04:32:56.180Z,12.13
2019-03-10T04:35:26.625Z,19.53
2019-03-10T04:37:57.133Z,14.37
2019-03-10T04:40:27.578Z,14.87
2019-03-10T04:42:58.061Z,13.07
2019-03-10T04:45:28.563Z,12.50
2019-03-10T04:47:58.990Z,15.80
2019-03-10T04:50:29.772Z,11.77
2019-03-10T04:53:00.556Z,12.03
2019-03-10T04:55:36.638Z,17.77
2019-03-10T04:58:10.076Z,12.77
2019-03-10T05:00:41.693Z,13.20
2019-03-10T05:03:12.122Z,11.47
2019-03-10T05:05:43.482Z,11.97
2019-03-10T05:08:14.288Z,17.23
2019-03-10T05:10:45.128Z,18.10
2019-03-10T05:13:15.963Z,15.67
2019-03-10T05:15:46.400Z,13.20
2019-03-10T05:18:17.236Z,14.70
2019-03-10T05:20:47.807Z,12.80
2019-03-10T05:23:38.669Z,19.87
2019-03-10T05:26:09.162Z,15.63
2019-03-10T05:28:47.934Z,15.20
2019-03-10T05:31:18.751Z,19.20
2019-03-10T05:33:49.190Z,19.30
2019-03-10T05:36:19.628Z,10.80
2019-03-10T05:38:50.137Z,17.40
2019-03-10T05:41:20.578Z,15.93
2019-03-10T05:43:51.035Z,12.33
2019-03-10T05:46:21.535Z,15.50
2019-03-10T05:48:51.973Z,15.90
2019-03-10T05:51:23.594Z,15.23
2019-03-10T05:53:54.104Z,15.53
2019-03-10T05:56:24.535Z,14.17
2019-03-10T05:58:54.964Z,15.00
2019-03-10T06:01:25.448Z,14.33
2019-03-10T06:03:55.878Z,14.23
2019-03-10T06:06:26.699Z,10.57
2019-03-10T06:08:57.187Z,15.63
2019-03-10T06:11:27.927Z,10.83
2019-03-10T06:13:58.720Z,9.67
2019-03-10T06:16:29.573Z,14.17
2019-03-10T06:19:00.007Z,12.50
2019-03-10T06:21:30.437Z,10.37
2019-03-10T06:24:00.986Z,7.37
2019-03-10T06:26:31.795Z,12.13
2019-03-10T06:29:02.592Z,5.30
2019-03-10T06:31:33.246Z,11.50
2019-03-10T06:34:03.694Z,9.60
2019-03-10T06:36:34.128Z,10.90
2019-03-10T06:39:05.887Z,9.30
2019-03-10T06:41:36.362Z,7.53
2019-03-10T06:44:07.191Z,6.43
2019-03-10T06:46:37.706Z,6.27
2019-03-10T06:49:08.154Z,7.17
2019-03-10T06:51:38.588Z,12.30
2019-03-10T06:54:09.059Z,8.03
2019-03-10T06:56:39.491Z,5.97
2019-03-10T06:59:09.918Z,7.07
2019-03-10T07:01:40.381Z,7.57
2019-03-10T07:04:10.829Z,10.93
2019-03-10T07:06:41.264Z,10.33
2019-03-10T07:09:11.714Z,5.30
2019-03-10T07:11:42.208Z,8.10
2019-03-10T07:14:13.027Z,9.17
2019-03-10T07:16:43.455Z,5.40
2019-03-10T07:19:14.037Z,9.93
2019-03-10T07:21:44.478Z,5.17
2019-03-10T07:24:14.994Z,3.73
2019-03-10T07:26:45.791Z,6.03
2019-03-10T07:29:31.736Z,6.00
2019-03-10T07:32:12.142Z,7.67
2019-03-10T07:35:10.952Z,6.87
2019-03-10T07:38:03.371Z,3.67
2019-03-10T07:40:57.304Z,4.40
2019-03-10T07:43:49.429Z,5.73
2019-03-10T07:46:25.868Z,5.83
2019-03-10T07:49:21.239Z,8.33
2019-03-10T07:52:06.921Z,7.23
2019-03-10T07:54:50.913Z,8.17
2019-03-10T07:57:52.651Z,8.50
2019-03-10T08:00:45.114Z,5.40
2019-03-10T08:03:33.335Z,6.87
2019-03-10T08:06:23.087Z,6.10
2019-03-10T08:09:08.421Z,10.97
2019-03-10T08:11:49.946Z,9.03
2019-03-10T08:14:54.619Z,6.27
2019-03-10T08:17:31.648Z,5.90
2019-03-10T08:20:21.298Z,7.00
2019-03-10T08:23:19.064Z,8.73
2019-03-10T08:26:26.601Z,5.67
2019-03-10T08:29:25.407Z,9.77
2019-03-10T08:32:13.413Z,9.30
2019-03-10T08:35:05.890Z,9.63
2019-03-10T08:37:43.728Z,11.87
2019-03-10T08:40:33.848Z,10.87
2019-03-10T08:43:29.634Z,8.77
2019-03-10T08:46:19.431Z,7.17
2019-03-10T08:49:07.774Z,8.73
2019-03-10T08:52:02.560Z,10.47
2019-03-10T08:54:42.458Z,10.40
2019-03-10T08:57:30.836Z,12.47
2019-03-10T09:00:30.072Z,9.50
2019-03-10T09:03:15.194Z,8.07
2019-03-10T09:06:04.569Z,10.73
2019-03-10T09:08:52.916Z,8.07
2019-03-10T09:11:48.722Z,9.53
2019-03-10T09:14:33.778Z,10.23
2019-03-10T09:17:27.217Z,10.23
2019-03-10T09:20:12.695Z,8.67
2019-03-10T09:23:20.514Z,9.60
2019-03-10T09:26:10.357Z,10.10
2019-03-10T09:28:58.884Z,9.90
2019-03-10T09:31:45.686Z,7.97
2019-03-10T09:34:34.028Z,13.23
2019-03-10T09:37:29.471Z,9.97
2019-03-10T09:40:10.472Z,8.57
2019-03-10T09:42:51.771Z,10.20
2019-03-10T09:45:51.306Z,6.57
2019-03-10T09:48:37.294Z,7.83
2019-03-10T09:51:25.344Z,8.67
2019-03-10T09:54:27.111Z,7.83
2019-03-10T09:57:07.947Z,6.87
2019-03-10T10:00:13.770Z,7.23
2019-03-10T10:03:21.247Z,7.43
2019-03-10T10:06:22.529Z,8.47
2019-03-10T10:09:18.121Z,10.90
2019-03-10T10:12:12.975Z,10.87
2019-03-10T10:14:54.168Z,10.37
2019-03-10T10:17:30.737Z,11.77
2019-03-10T10:20:18.763Z,9.87
2019-03-10T10:23:04.534Z,11.30
2019-03-10T10:25:57.183Z,10.17
2019-03-10T10:28:39.852Z,12.53
2019-03-10T10:31:21.377Z,14.00
2019-03-10T10:34:19.969Z,12.97
2019-03-10T10:37:15.430Z,9.87
2019-03-10T10:40:03.440Z,9.07
2019-03-10T10:43:05.393Z,12.20
2019-03-10T10:45:54.108Z,10.80
2019-03-10T10:48:43.467Z,8.27
2019-03-10T10:51:42.671Z,9.93
2019-03-10T10:54:25.129Z,13.77
2019-03-10T10:57:08.781Z,10.83
2019-03-10T11:00:01.181Z,10.40
2019-03-10T11:02:49.720Z,9.83
2019-03-10T11:05:37.986Z,10.37
2019-03-10T11:08:14.787Z,9.70
2019-03-10T11:10:59.496Z,14.70
2019-03-10T11:13:40.503Z,10.13
2019-03-10T11:16:27.264Z,11.80
2019-03-10T11:19:14.867Z,10.97
2019-03-10T11:22:01.209Z,8.17
2019-03-10T11:24:45.123Z,7.73
2019-03-10T11:27:40.886Z,11.27
2019-03-10T11:30:24.450Z,8.30
2019-03-10T11:33:15.210Z,6.27
2019-03-10T11:36:19.779Z,6.07
2019-03-10T11:38:59.218Z,5.43
2019-03-10T11:41:38.014Z,4.27
2019-03-10T11:44:28.366Z,2.87
2019-03-10T11:47:07.939Z,3.33
2019-03-10T11:49:56.259Z,2.20
2019-03-10T11:52:44.499Z,4.50
2019-03-10T11:55:28.995Z,3.43
2019-03-10T11:58:09.660Z,3.83
2019-03-10T12:00:59.180Z,2.53
2019-03-10T12:03:42.615Z,3.57
2019-03-10T12:06:25.963Z,4.50
2019-03-10T12:09:07.060Z,4.30
2019-03-10T12:11:39.760Z,9.53
2019-03-10T12:14:11.486Z,6.90
2019-03-10T12:16:41.926Z,6.23
2019-03-10T12:19:12.388Z,7.17
2019-03-10T12:21:42.814Z,4.60
2019-03-10T12:24:13.271Z,6.70
2019-03-10T12:26:44.209Z,4.60
2019-03-10T12:29:14.646Z,4.13
2019-03-10T12:31:45.461Z,5.80
2019-03-10T12:34:15.989Z,5.27
2019-03-10T12:36:46.837Z,6.53
2019-03-10T12:39:20.876Z,3.87
2019-03-10T12:41:58.473Z,5.03
2019-03-10T12:44:23.475Z,5.40
2019-03-10T12:46:54.012Z,5.37
2019-03-10T12:49:24.455Z,4.50
2019-03-10T12:51:54.905Z,9.43
2019-03-10T12:54:26.650Z,5.63
2019-03-10T12:56:57.097Z,4.93
2019-03-10T12:59:27.893Z,5.57
2019-03-10T13:01:58.422Z,3.77
2019-03-10T13:04:29.154Z,4.20
2019-03-10T13:07:01.497Z,6.07
2019-03-10T13:09:32.301Z,7.77
2019-03-10T13:12:03.497Z,10.83
2019-03-10T13:14:34.281Z,5.73
2019-03-10T13:17:04.772Z,7.33
2019-03-10T13:19:35.207Z,4.20
2019-03-10T13:22:05.642Z,5.03
2019-03-10T13:24:36.443Z,5.70
2019-03-10T13:27:07.988Z,3.47
2019-03-10T13:29:39.114Z,3.00
2019-03-10T13:32:09.599Z,4.87
2019-03-10T13:34:40.660Z,6.83
2019-03-10T13:37:11.735Z,6.17
2019-03-10T13:39:42.215Z,3.47
2019-03-10T13:42:14.018Z,3.57
2019-03-10T13:44:44.608Z,3.30
2019-03-10T13:47:15.283Z,3.37
2019-03-10T13:49:45.702Z,4.80
2019-03-10T13:52:20.403Z,3.73
2019-03-10T13:54:50.858Z,3.37
2019-03-10T13:57:21.622Z,2.60
2019-03-10T13:59:52.154Z,2.93
2019-03-10T14:02:23.172Z,2.90
2019-03-10T14:04:53.930Z,3.23
2019-03-10T14:07:26.617Z,2.80
2019-03-10T14:09:57.476Z,3.13
2019-03-10T14:12:28.603Z,2.67
2019-03-10T14:14:59.049Z,3.73
2019-03-10T14:17:29.546Z,4.40
2019-03-10T14:20:00.451Z,3.90
2019-03-10T14:22:31.916Z,4.10
2019-03-10T14:25:02.696Z,3.33
2019-03-10T14:27:34.944Z,4.10
2019-03-10T14:30:07.612Z,4.47
2019-03-10T14:32:40.840Z,6.90
2019-03-10T14:35:11.840Z,3.73
2019-03-10T14:37:42.334Z,3.80
2019-03-10T14:40:13.396Z,4.33
2019-03-10T14:42:45.891Z,3.30
2019-03-10T14:45:16.436Z,4.43
2019-03-10T14:47:48.089Z,7.20
2019-03-10T14:50:19.018Z,4.17
2019-03-10T14:52:49.761Z,3.70
2019-03-10T14:55:20.635Z,3.87
2019-03-10T14:57:51.121Z,4.43
2019-03-10T15:00:24.342Z,4.60
2019-03-10T15:02:55.162Z,5.43
2019-03-10T15:05:27.758Z,4.33
2019-03-10T15:07:58.388Z,6.17
2019-03-10T15:10:29.214Z,5.90
2019-03-10T15:12:59.666Z,6.60
2019-03-10T15:15:30.179Z,6.70
2019-03-10T15:18:02.814Z,3.93
2019-03-10T15:20:33.687Z,4.20
2019-03-10T15:23:04.107Z,5.30
2019-03-10T15:25:35.016Z,5.93
2019-03-10T15:28:05.464Z,3.40
2019-03-10T15:30:35.924Z,5.17
2019-03-10T15:33:06.365Z,4.33
2019-03-10T15:35:36.875Z,4.00
2019-03-10T15:38:07.352Z,4.00
2019-03-10T15:40:37.793Z,5.87
2019-03-10T15:43:08.250Z,2.70
2019-03-10T15:45:38.701Z,3.20
2019-03-10T15:48:09.159Z,3.03
2019-03-10T15:50:40.032Z,4.60
2019-03-10T15:53:10.641Z,5.40
2019-03-10T15:55:41.130Z,3.03
2019-03-10T15:58:11.600Z,3.60
2019-03-10T16:00:42.315Z,8.30
2019-03-10T16:03:12.932Z,7.13
2019-03-10T16:05:43.812Z,7.30
2019-03-10T16:08:17.202Z,6.03
2019-03-10T16:10:47.654Z,7.57
2019-03-10T16:13:18.394Z,3.87
2019-03-10T16:15:48.828Z,10.50
2019-03-10T16:18:21.421Z,3.87
2019-03-10T16:20:51.835Z,8.23
2019-03-10T16:23:22.619Z,8.43
2019-03-10T16:25:53.119Z,3.57
2019-03-10T16:28:23.577Z,3.93
2019-03-10T16:30:54.101Z,4.20
2019-03-10T16:33:25.544Z,2.70
2019-03-10T16:35:56.462Z,4.53
2019-03-10T16:38:27.314Z,2.90
2019-03-10T16:40:57.814Z,5.47
2019-03-10T16:43:28.255Z,2.27
2019-03-10T16:45:58.691Z,4.50
2019-03-10T16:48:30.324Z,3.90
2019-03-10T16:51:00.847Z,3.30
2019-03-10T16:53:31.274Z,4.10
2019-03-10T16:56:03.423Z,2.90
2019-03-10T16:58:34.319Z,4.57
2019-03-10T17:01:07.807Z,4.30
2019-03-10T17:03:39.219Z,4.67
2019-03-10T17:06:13.677Z,3.43
2019-03-10T17:08:44.705Z,4.50
2019-03-10T17:11:18.019Z,3.40
2019-03-10T17:13:49.563Z,2.47
2019-03-10T17:16:24.220Z,2.27
2019-03-10T17:18:54.650Z,2.30
2019-03-10T17:21:25.483Z,3.20
2019-03-10T17:23:56.307Z,1.33
2019-03-10T17:26:27.467Z,1.40
2019-03-10T17:28:58.204Z,3.40
2019-03-10T17:31:28.750Z,3.70
2019-03-10T17:33:59.174Z,1.80
2019-03-10T17:36:29.998Z,1.77
2019-03-10T17:39:02.768Z,2.20
2019-03-10T17:41:35.484Z,1.60
2019-03-10T17:44:06.411Z,1.23
2019-03-10T17:46:37.284Z,0.93
2019-03-10T17:49:08.802Z,0.80
2019-03-10T17:51:41.075Z,1.00
2019-03-10T17:54:11.920Z,0.90
2019-03-10T17:56:42.386Z,0.90
2019-03-10T17:59:12.814Z,1.33
2019-03-10T18:01:43.615Z,0.80
2019-03-10T18:04:14.072Z,0.93
2019-03-10T18:06:44.488Z,0.80
2019-03-10T18:09:14.954Z,2.10
2019-03-10T18:11:45.480Z,4.43
2019-03-10T18:14:15.967Z,1.50
2019-03-10T18:16:48.087Z,1.80
2019-03-10T18:19:18.556Z,2.00
2019-03-10T18:21:53.429Z,1.83
2019-03-10T18:24:23.887Z,2.10
2019-03-10T18:26:58.763Z,1.80
2019-03-10T18:29:29.549Z,4.63
2019-03-10T18:32:02.395Z,1.67
2019-03-10T18:34:32.828Z,2.10
2019-03-10T18:37:06.402Z,2.10
2019-03-10T18:39:36.897Z,2.33
2019-03-10T18:42:10.404Z,1.83
2019-03-10T18:44:40.885Z,1.43
2019-03-10T18:47:11.323Z,1.70
2019-03-10T18:49:41.772Z,1.70
2019-03-10T18:52:12.380Z,1.37
2019-03-10T18:54:44.033Z,3.13
2019-03-10T18:57:18.893Z,1.40
2019-03-10T18:59:51.132Z,1.70
2019-03-10T19:02:22.174Z,1.50
2019-03-10T19:04:54.248Z,1.80
2019-03-10T19:07:25.944Z,1.80
2019-03-10T19:09:59.771Z,1.93
2019-03-10T19:12:31.680Z,1.80
2019-03-10T19:15:02.121Z,1.70
2019-03-10T19:17:33.760Z,2.00
2019-03-10T19:20:04.660Z,2.10
2019-03-10T19:22:35.099Z,2.00
2019-03-10T19:25:06.269Z,2.27
2019-03-10T19:27:36.707Z,1.87
2019-03-10T19:30:10.526Z,2.57
2019-03-10T19:32:40.947Z,2.17
2019-03-10T19:35:11.909Z,2.80
2019-03-10T19:37:42.819Z,2.00
2019-03-10T19:40:14.422Z,2.03
2019-03-10T19:42:45.363Z,2.27
2019-03-10T19:45:16.518Z,2.60
2019-03-10T19:47:46.942Z,1.50
2019-03-10T19:50:19.425Z,1.93
2019-03-10T19:52:49.907Z,1.93
2019-03-10T19:55:20.379Z,2.00
2019-03-10T19:57:50.807Z,0.77
2019-03-10T20:00:21.594Z,1.13
2019-03-10T20:02:52.036Z,1.40
2019-03-10T20:05:22.631Z,1.70
2019-03-10T20:07:53.462Z,1.33
2019-03-10T20:10:23.936Z,1.40
2019-03-10T20:12:54.361Z,1.70
2019-03-10T20:15:25.263Z,1.70
2019-03-10T20:17:55.693Z,2.00
2019-03-10T20:20:26.620Z,1.53
2019-03-10T20:22:57.109Z,1.50
2019-03-10T20:25:29.511Z,1.30
2019-03-10T20:27:59.932Z,1.37
2019-03-10T20:30:30.404Z,2.10
2019-03-10T20:33:00.836Z,1.37
2019-03-10T20:35:32.718Z,1.47
2019-03-10T20:38:04.946Z,4.70
2019-03-10T20:40:35.708Z,1.70
2019-03-10T20:43:06.168Z,1.73
2019-03-10T20:45:36.670Z,1.87
2019-03-10T20:48:07.446Z,1.70
2019-03-10T20:50:38.034Z,1.50
2019-03-10T20:53:09.496Z,1.57
2019-03-10T20:55:39.920Z,1.40
2019-03-10T20:58:11.364Z,1.50
2019-03-10T21:00:41.848Z,1.60
2019-03-10T21:03:12.278Z,1.67
2019-03-10T21:05:42.712Z,1.70
2019-03-10T21:08:13.239Z,1.93
2019-03-10T21:10:46.734Z,1.70
2019-03-10T21:13:17.194Z,2.00
2019-03-10T21:15:47.891Z,2.50
2019-03-10T21:18:18.748Z,2.10
2019-03-10T21:20:49.200Z,2.30
2019-03-10T21:23:20.111Z,2.47
2019-03-10T21:25:50.610Z,2.77
2019-03-10T21:28:21.039Z,2.40
2019-03-10T21:30:51.849Z,2.13
2019-03-10T21:33:23.420Z,2.40
2019-03-10T21:35:53.841Z,2.80
2019-03-10T21:38:24.322Z,2.37
2019-03-10T21:40:55.129Z,1.80
2019-03-10T21:43:25.906Z,2.10
2019-03-10T21:45:57.155Z,2.83
2019-03-10T21:48:27.581Z,2.43
2019-03-10T21:50:58.008Z,2.53
2019-03-10T21:53:28.478Z,2.13
2019-03-10T21:55:59.459Z,1.70
2019-03-10T21:58:30.259Z,1.93
2019-03-10T22:01:01.203Z,1.70
2019-03-10T22:03:32.208Z,2.07
2019-03-10T22:06:03.002Z,1.53
2019-03-10T22:08:33.486Z,1.43
2019-03-10T22:11:03.958Z,1.30
2019-03-10T22:13:34.381Z,0.90
2019-03-10T22:16:04.855Z,1.00
2019-03-10T22:18:35.284Z,1.20
2019-03-10T22:21:05.707Z,0.90
2019-03-10T22:23:36.175Z,1.57
2019-03-10T22:26:06.595Z,1.00
2019-03-10T22:28:37.051Z,1.00
2019-03-10T22:31:07.589Z,0.80
2019-03-10T22:33:38.019Z,0.73
2019-03-10T22:36:08.440Z,1.80
2019-03-10T22:38:39.298Z,1.93
2019-03-10T22:41:09.723Z,1.07
2019-03-10T22:43:40.153Z,1.30
2019-03-10T22:46:10.643Z,1.20
2019-03-10T22:48:41.376Z,1.57
2019-03-10T22:51:12.096Z,2.07
2019-03-10T22:53:42.578Z,1.60
2019-03-10T22:56:13.003Z,1.90
2019-03-10T22:58:43.428Z,2.50
2019-03-10T23:01:14.447Z,2.83
2019-03-10T23:03:44.874Z,2.53
2019-03-10T23:06:15.615Z,4.80
2019-03-10T23:08:46.091Z,2.83
2019-03-10T23:11:16.520Z,3.87
2019-03-10T23:13:47.054Z,3.27
2019-03-10T23:16:18.151Z,4.20
2019-03-10T23:18:48.887Z,5.13
2019-03-10T23:21:19.622Z,5.97
2019-03-10T23:23:50.771Z,4.40
2019-03-10T23:26:21.508Z,4.53
2019-03-10T23:28:51.932Z,4.33
2019-03-10T23:31:22.418Z,5.93
2019-03-10T23:33:52.857Z,3.50
2019-03-10T23:36:23.285Z,3.73
2019-03-10T23:38:53.763Z,5.40
2019-03-10T23:41:25.362Z,4.97
2019-03-10T23:43:55.787Z,5.60
2019-03-10T23:46:27.095Z,6.67
2019-03-10T23:48:57.528Z,3.90
2019-03-10T23:51:27.994Z,4.17
2019-03-10T23:53:58.796Z,5.70
2019-03-10T23:56:29.224Z,3.83
2019-03-10T23:59:00.127Z,5.83
